createdAt,value
2019-06-08T00:00:51.006Z,1010.55
2019-06-08T00:01:50.993Z,1010.59
2019-06-08T00:02:51.435Z,1010.59
2019-06-08T00:04:02.957Z,1010.63
2019-06-08T00:04:51.252Z,1010.60
2019-06-08T00:05:50.951Z,1010.55
2019-06-08T00:06:50.963Z,1010.69
2019-06-08T00:07:51.201Z,1010.62
2019-06-08T00:08:50.934Z,1010.71
2019-06-08T00:09:50.902Z,1010.65
2019-06-08T00:10:51.248Z,1010.69
2019-06-08T00:11:50.908Z,1010.64
2019-06-08T00:12:50.873Z,1010.62
2019-06-08T00:13:51.160Z,1010.64
2019-06-08T00:14:50.860Z,1010.67
2019-06-08T00:15:50.838Z,1010.63
2019-06-08T00:16:51.093Z,1010.68
2019-06-08T00:17:50.833Z,1010.66
2019-06-08T00:18:50.852Z,1010.68
2019-06-08T00:19:51.116Z,1010.66
2019-06-08T00:20:50.806Z,1010.67
2019-06-08T00:21:50.774Z,1010.65
2019-06-08T00:22:51.101Z,1010.66
2019-06-08T00:23:50.756Z,1010.66
2019-06-08T00:24:50.746Z,1010.65
2019-06-08T00:25:51.054Z,1010.64
2019-06-08T00:26:50.720Z,1010.71
2019-06-08T00:27:50.710Z,1010.63
2019-06-08T00:28:51.036Z,1010.62
2019-06-08T00:29:50.692Z,1010.62
2019-06-08T00:30:50.669Z,1010.64
2019-06-08T00:31:50.921Z,1010.61
2019-06-08T00:32:50.698Z,1010.58
2019-06-08T00:33:50.646Z,1010.61
2019-06-08T00:35:02.146Z,1010.62
2019-06-08T00:35:50.938Z,1010.64
2019-06-08T00:36:50.966Z,1010.60
2019-06-08T00:37:50.596Z,1010.61
2019-06-08T00:38:50.581Z,1010.66
2019-06-08T00:39:50.869Z,1010.63
2019-06-08T00:40:50.570Z,1010.64
2019-06-08T00:41:50.551Z,1010.60
2019-06-08T00:42:50.859Z,1010.60
2019-06-08T00:43:50.529Z,1010.61
2019-06-08T00:44:50.522Z,1010.64
2019-06-08T00:45:50.866Z,1010.60
2019-06-08T00:46:50.537Z,1010.57
2019-06-08T00:47:50.485Z,1010.62
2019-06-08T00:48:50.754Z,1010.60
2019-06-08T00:49:50.469Z,1010.60
2019-06-08T00:50:50.452Z,1010.61
2019-06-08T00:51:50.778Z,1010.55
2019-06-08T00:52:50.441Z,1010.61
2019-06-08T00:53:50.421Z,1010.59
2019-06-08T00:54:50.409Z,1010.58
2019-06-08T00:55:50.399Z,1010.57
2019-06-08T00:56:50.402Z,1010.66
2019-06-08T00:57:50.674Z,1010.61
2019-06-08T00:58:50.368Z,1010.58
2019-06-08T00:59:50.354Z,1010.60
2019-06-08T01:00:50.667Z,1010.56
2019-06-08T01:01:50.344Z,1010.58
2019-06-08T01:02:50.334Z,1010.59
2019-06-08T01:03:50.457Z,1010.58
2019-06-08T01:04:50.299Z,1010.61
2019-06-08T01:06:02.786Z,1010.59
2019-06-08T01:06:50.622Z,1010.57
2019-06-08T01:07:50.271Z,1010.62
2019-06-08T01:08:50.258Z,1010.58
2019-06-08T01:09:50.553Z,1010.62
2019-06-08T01:10:50.236Z,1010.56
2019-06-08T01:11:50.275Z,1010.57
2019-06-08T01:12:50.515Z,1010.60
2019-06-08T01:13:50.205Z,1010.63
2019-06-08T01:14:50.194Z,1010.66
2019-06-08T01:15:50.533Z,1010.61
2019-06-08T01:16:50.171Z,1010.63
2019-06-08T01:18:02.158Z,1010.61
2019-06-08T01:18:50.435Z,1010.63
2019-06-08T01:19:50.146Z,1010.69
2019-06-08T01:20:50.127Z,1010.66
2019-06-08T01:21:50.409Z,1010.68
2019-06-08T01:22:50.107Z,1010.65
2019-06-08T01:23:50.123Z,1010.64
2019-06-08T01:24:50.397Z,1010.66
2019-06-08T01:25:50.072Z,1010.64
2019-06-08T01:26:50.069Z,1010.70
2019-06-08T01:27:50.351Z,1010.65
2019-06-08T01:28:50.050Z,1010.59
2019-06-08T01:29:50.045Z,1010.58
2019-06-08T01:30:50.330Z,1010.60
2019-06-08T01:31:50.008Z,1010.61
2019-06-08T01:32:49.998Z,1010.58
2019-06-08T01:33:50.337Z,1010.61
2019-06-08T01:34:49.973Z,1010.61
2019-06-08T01:35:49.971Z,1010.61
2019-06-08T01:37:03.760Z,1010.60
2019-06-08T01:37:50.254Z,1010.60
2019-06-08T01:38:50.228Z,1010.65
2019-06-08T01:39:49.936Z,1010.61
2019-06-08T01:40:49.911Z,1010.57
2019-06-08T01:41:50.172Z,1010.62
2019-06-08T01:42:49.899Z,1010.60
2019-06-08T01:43:49.878Z,1010.57
2019-06-08T01:44:50.223Z,1010.57
2019-06-08T01:45:49.855Z,1010.57
2019-06-08T01:46:49.844Z,1010.57
2019-06-08T01:47:50.131Z,1010.49
2019-06-08T01:48:49.828Z,1010.43
2019-06-08T01:49:49.852Z,1010.51
2019-06-08T01:50:50.116Z,1010.45
2019-06-08T01:51:49.791Z,1010.43
2019-06-08T01:52:49.781Z,1010.44
2019-06-08T01:53:50.073Z,1010.45
2019-06-08T01:54:49.763Z,1010.40
2019-06-08T01:55:49.759Z,1010.44
2019-06-08T01:56:50.102Z,1010.41
2019-06-08T01:57:49.737Z,1010.42
2019-06-08T01:58:49.716Z,1010.48
2019-06-08T01:59:50.041Z,1010.46
2019-06-08T02:00:49.707Z,1010.49
2019-06-08T02:01:49.675Z,1010.51
2019-06-08T02:02:49.965Z,1010.58
2019-06-08T02:03:49.663Z,1010.54
2019-06-08T02:04:49.648Z,1010.56
2019-06-08T02:05:49.945Z,1010.50
2019-06-08T02:06:49.666Z,1010.55
2019-06-08T02:08:02.356Z,1010.48
2019-06-08T02:08:50.924Z,1010.44
2019-06-08T02:09:49.601Z,1010.48
2019-06-08T02:10:49.577Z,1010.45
2019-06-08T02:11:49.891Z,1010.49
2019-06-08T02:12:49.577Z,1010.45
2019-06-08T02:13:49.551Z,1010.49
2019-06-08T02:14:49.850Z,1010.50
2019-06-08T02:15:49.532Z,1010.48
2019-06-08T02:16:49.548Z,1010.46
2019-06-08T02:17:49.880Z,1010.51
2019-06-08T02:18:51.218Z,1010.55
2019-06-08T02:19:49.485Z,1010.56
2019-06-08T02:20:49.818Z,1010.54
2019-06-08T02:21:49.468Z,1010.44
2019-06-08T02:22:49.473Z,1010.47
2019-06-08T02:23:49.752Z,1010.43
2019-06-08T02:24:49.438Z,1010.47
2019-06-08T02:25:49.416Z,1010.48
2019-06-08T02:26:49.726Z,1010.45
2019-06-08T02:27:49.402Z,1010.47
2019-06-08T02:28:49.395Z,1010.46
2019-06-08T02:29:49.529Z,1010.43
2019-06-08T02:30:49.365Z,1010.41
2019-06-08T02:31:49.428Z,1010.44
2019-06-08T02:32:49.647Z,1010.40
2019-06-08T02:33:49.343Z,1010.42
2019-06-08T02:34:49.327Z,1010.47
2019-06-08T02:35:49.574Z,1010.45
2019-06-08T02:36:49.306Z,1010.46
2019-06-08T02:37:49.286Z,1010.45
2019-06-08T02:39:01.508Z,1010.47
2019-06-08T02:39:49.266Z,1010.49
2019-06-08T02:40:49.571Z,1010.53
2019-06-08T02:41:49.540Z,1010.45
2019-06-08T02:42:49.244Z,1010.48
2019-06-08T02:43:49.234Z,1010.46
2019-06-08T02:44:49.511Z,1010.45
2019-06-08T02:45:49.200Z,1010.42
2019-06-08T02:46:49.188Z,1010.39
2019-06-08T02:47:49.556Z,1010.39
2019-06-08T02:49:03.512Z,1010.44
2019-06-08T02:49:49.177Z,1010.50
2019-06-08T02:50:49.481Z,1010.48
2019-06-08T02:51:49.136Z,1010.47
2019-06-08T02:52:49.128Z,1010.45
2019-06-08T02:53:49.453Z,1010.43
2019-06-08T02:54:49.137Z,1010.44
2019-06-08T02:55:49.097Z,1010.49
2019-06-08T02:56:49.689Z,1010.55
2019-06-08T02:57:49.070Z,1010.55
2019-06-08T02:58:49.059Z,1010.53
2019-06-08T02:59:49.050Z,1010.53
2019-06-08T03:00:49.375Z,1010.45
2019-06-08T03:01:49.024Z,1010.42
2019-06-08T03:02:49.018Z,1010.49
2019-06-08T03:03:49.346Z,1010.43
2019-06-08T03:04:48.997Z,1010.43
2019-06-08T03:05:49.026Z,1010.39
2019-06-08T03:06:49.219Z,1010.37
2019-06-08T03:07:48.962Z,1010.37
2019-06-08T03:08:49.097Z,1010.42
2019-06-08T03:10:01.471Z,1010.36
2019-06-08T03:10:49.293Z,1010.36
2019-06-08T03:11:48.932Z,1010.39
2019-06-08T03:12:48.902Z,1010.38
2019-06-08T03:13:49.950Z,1010.40
2019-06-08T03:14:48.881Z,1010.46
2019-06-08T03:15:48.871Z,1010.41
2019-06-08T03:16:49.200Z,1010.40
2019-06-08T03:17:48.850Z,1010.36
2019-06-08T03:18:48.845Z,1010.38
2019-06-08T03:19:49.168Z,1010.40
2019-06-08T03:20:48.823Z,1010.31
2019-06-08T03:21:48.849Z,1010.30
2019-06-08T03:22:49.116Z,1010.33
2019-06-08T03:23:48.793Z,1010.35
2019-06-08T03:24:48.778Z,1010.35
2019-06-08T03:25:52.765Z,1010.41
2019-06-08T03:26:48.751Z,1010.40
2019-06-08T03:27:48.747Z,1010.34
2019-06-08T03:28:48.733Z,1010.37
2019-06-08T03:29:48.718Z,1010.35
2019-06-08T03:30:54.540Z,1010.39
2019-06-08T03:31:55.960Z,1010.41
2019-06-08T03:32:55.627Z,1010.41
2019-06-08T03:33:54.898Z,1010.40
2019-06-08T03:34:55.968Z,1010.45
2019-06-08T03:35:57.000Z,1010.40
2019-06-08T03:36:55.932Z,1010.41
2019-06-08T03:37:48.642Z,1010.35
2019-06-08T03:38:48.627Z,1010.34
2019-06-08T03:39:48.925Z,1010.36
2019-06-08T03:42:03.274Z,1010.35
2019-06-08T03:43:03.639Z,1010.42
2019-06-08T03:44:03.244Z,1010.39
2019-06-08T03:45:03.224Z,1010.39
2019-06-08T03:46:03.562Z,1010.44
2019-06-08T03:47:03.494Z,1010.44
2019-06-08T03:48:03.479Z,1010.47
2019-06-08T03:49:03.203Z,1010.45
2019-06-08T03:50:03.179Z,1010.47
2019-06-08T03:51:03.466Z,1010.46
2019-06-08T03:52:03.163Z,1010.57
2019-06-08T03:53:03.160Z,1010.49
2019-06-08T03:54:03.354Z,1010.44
2019-06-08T03:55:03.133Z,1010.48
2019-06-08T03:56:03.126Z,1010.42
2019-06-08T03:57:03.306Z,1010.46
2019-06-08T03:58:03.097Z,1010.46
2019-06-08T03:59:03.112Z,1010.42
2019-06-08T04:00:12.545Z,1010.44
2019-06-08T04:01:03.063Z,1010.44
2019-06-08T04:02:03.052Z,1010.46
2019-06-08T04:03:03.321Z,1010.43
2019-06-08T04:04:03.023Z,1010.43
2019-06-08T04:05:03.043Z,1010.39
2019-06-08T04:06:03.317Z,1010.43
2019-06-08T04:07:02.992Z,1010.47
2019-06-08T04:08:02.985Z,1010.40
2019-06-08T04:09:03.304Z,1010.43
2019-06-08T04:10:02.975Z,1010.38
2019-06-08T04:11:02.958Z,1010.38
2019-06-08T04:12:15.874Z,1010.38
2019-06-08T04:13:04.252Z,1010.32
2019-06-08T04:14:02.921Z,1010.30
2019-06-08T04:15:02.935Z,1010.39
2019-06-08T04:16:03.144Z,1010.29
2019-06-08T04:17:02.887Z,1010.30
2019-06-08T04:18:02.874Z,1010.26
2019-06-08T04:19:03.171Z,1010.31
2019-06-08T04:20:11.175Z,1010.24
2019-06-08T04:21:03.858Z,1010.24
2019-06-08T04:22:03.350Z,1010.26
2019-06-08T04:23:02.825Z,1010.23
2019-06-08T04:24:02.813Z,1010.26
2019-06-08T04:25:03.099Z,1010.23
2019-06-08T04:26:02.840Z,1010.23
2019-06-08T04:27:02.784Z,1010.23
2019-06-08T04:28:03.077Z,1010.23
2019-06-08T04:29:02.767Z,1010.23
2019-06-08T04:30:02.750Z,1010.18
2019-06-08T04:31:03.034Z,1010.22
2019-06-08T04:32:02.742Z,1010.25
2019-06-08T04:33:02.722Z,1010.27
2019-06-08T04:34:03.040Z,1010.21
2019-06-08T04:35:02.699Z,1010.27
2019-06-08T04:36:02.699Z,1010.27
2019-06-08T04:37:03.033Z,1010.26
2019-06-08T04:38:02.677Z,1010.24
2019-06-08T04:39:02.650Z,1010.27
2019-06-08T04:40:02.950Z,1010.32
2019-06-08T04:41:02.637Z,1010.28
2019-06-08T04:42:02.630Z,1010.22
2019-06-08T04:43:15.656Z,1010.25
2019-06-08T04:44:02.906Z,1010.29
2019-06-08T04:45:02.588Z,1010.28
2019-06-08T04:46:02.584Z,1010.31
2019-06-08T04:47:02.892Z,1010.25
2019-06-08T04:48:02.562Z,1010.30
2019-06-08T04:49:02.548Z,1010.26
2019-06-08T04:50:20.875Z,1010.30
2019-06-08T04:51:02.554Z,1010.27
2019-06-08T04:52:02.527Z,1010.18
2019-06-08T04:53:02.517Z,1010.26
2019-06-08T04:54:02.796Z,1010.19
2019-06-08T04:55:02.481Z,1010.22
2019-06-08T04:56:02.481Z,1010.23
2019-06-08T04:57:02.809Z,1010.21
2019-06-08T04:58:02.519Z,1010.28
2019-06-08T04:59:02.444Z,1010.21
2019-06-08T05:00:11.147Z,1010.27
2019-06-08T05:01:02.421Z,1010.29
2019-06-08T05:02:02.408Z,1010.30
2019-06-08T05:03:02.404Z,1010.33
2019-06-08T05:04:02.399Z,1010.29
2019-06-08T05:05:02.667Z,1010.30
2019-06-08T05:06:02.370Z,1010.25
2019-06-08T05:07:02.353Z,1010.25
2019-06-08T05:08:02.663Z,1010.28
2019-06-08T05:09:02.339Z,1010.26
2019-06-08T05:10:02.321Z,1010.26
2019-06-08T05:11:02.578Z,1010.24
2019-06-08T05:12:02.305Z,1010.20
2019-06-08T05:13:02.290Z,1010.24
2019-06-08T05:14:14.982Z,1010.24
2019-06-08T05:15:02.571Z,1010.24
2019-06-08T05:16:02.255Z,1010.21
2019-06-08T05:17:02.243Z,1010.21
2019-06-08T05:18:02.554Z,1010.22
2019-06-08T05:19:02.244Z,1010.24
2019-06-08T05:20:02.214Z,1010.22
2019-06-08T05:21:02.486Z,1010.21
2019-06-08T05:22:02.197Z,1010.24
2019-06-08T05:23:02.183Z,1010.26
2019-06-08T05:24:02.614Z,1010.34
2019-06-08T05:25:02.179Z,1010.37
2019-06-08T05:26:02.152Z,1010.30
2019-06-08T05:27:02.454Z,1010.38
2019-06-08T05:28:02.127Z,1010.33
2019-06-08T05:29:02.167Z,1010.40
2019-06-08T05:30:08.370Z,1010.38
2019-06-08T05:31:02.096Z,1010.34
2019-06-08T05:32:02.084Z,1010.37
2019-06-08T05:33:02.427Z,1010.32
2019-06-08T05:34:02.077Z,1010.30
2019-06-08T05:35:02.067Z,1010.30
2019-06-08T05:36:02.317Z,1010.32
2019-06-08T05:37:02.033Z,1010.31
2019-06-08T05:38:02.049Z,1010.32
2019-06-08T05:39:02.382Z,1010.41
2019-06-08T05:40:02.012Z,1010.36
2019-06-08T05:41:01.990Z,1010.35
2019-06-08T05:42:02.325Z,1010.37
2019-06-08T05:43:01.973Z,1010.37
2019-06-08T05:44:01.953Z,1010.44
2019-06-08T05:45:14.566Z,1010.41
2019-06-08T05:46:02.241Z,1010.36
2019-06-08T05:47:02.268Z,1010.37
2019-06-08T05:48:01.989Z,1010.43
2019-06-08T05:49:01.907Z,1010.42
2019-06-08T05:50:02.238Z,1010.44
2019-06-08T05:51:04.254Z,1010.39
2019-06-08T05:52:01.867Z,1010.42
2019-06-08T05:53:02.147Z,1010.42
2019-06-08T05:54:03.060Z,1010.40
2019-06-08T05:55:01.837Z,1010.42
2019-06-08T05:56:02.205Z,1010.44
2019-06-08T05:57:01.817Z,1010.42
2019-06-08T05:58:01.801Z,1010.42
2019-06-08T05:59:02.123Z,1010.41
2019-06-08T06:00:08.436Z,1010.40
2019-06-08T06:01:01.793Z,1010.36
2019-06-08T06:02:02.128Z,1010.44
2019-06-08T06:03:01.750Z,1010.45
2019-06-08T06:04:01.737Z,1010.37
2019-06-08T06:05:02.041Z,1010.39
2019-06-08T06:06:01.720Z,1010.38
2019-06-08T06:07:01.720Z,1010.38
2019-06-08T06:08:02.029Z,1010.40
2019-06-08T06:09:01.687Z,1010.42
2019-06-08T06:10:01.680Z,1010.43
2019-06-08T06:11:01.980Z,1010.43
2019-06-08T06:12:01.671Z,1010.47
2019-06-08T06:13:01.641Z,1010.45
2019-06-08T06:14:02.010Z,1010.44
2019-06-08T06:15:01.629Z,1010.42
2019-06-08T06:16:13.919Z,1010.52
2019-06-08T06:17:01.602Z,1010.46
2019-06-08T06:18:01.958Z,1010.48
2019-06-08T06:19:01.917Z,1010.50
2019-06-08T06:20:01.708Z,1010.47
2019-06-08T06:21:11.041Z,1010.50
2019-06-08T06:22:01.557Z,1010.49
2019-06-08T06:23:01.548Z,1010.54
2019-06-08T06:24:01.809Z,1010.54
2019-06-08T06:25:01.529Z,1010.48
2019-06-08T06:26:01.509Z,1010.49
2019-06-08T06:27:01.840Z,1010.54
2019-06-08T06:28:01.577Z,1010.48
2019-06-08T06:29:01.477Z,1010.51
2019-06-08T06:30:01.883Z,1010.52
2019-06-08T06:31:01.452Z,1010.51
2019-06-08T06:32:01.440Z,1010.47
2019-06-08T06:33:01.670Z,1010.52
2019-06-08T06:34:01.430Z,1010.56
2019-06-08T06:35:01.411Z,1010.53
2019-06-08T06:36:01.748Z,1010.51
2019-06-08T06:37:01.397Z,1010.57
2019-06-08T06:38:01.397Z,1010.50
2019-06-08T06:39:01.680Z,1010.51
2019-06-08T06:40:01.363Z,1010.60
2019-06-08T06:41:01.350Z,1010.54
2019-06-08T06:42:01.610Z,1010.57
2019-06-08T06:43:01.342Z,1010.54
2019-06-08T06:44:01.341Z,1010.54
2019-06-08T06:45:01.598Z,1010.52
2019-06-08T06:46:01.303Z,1010.50
2019-06-08T06:47:12.237Z,1010.60
2019-06-08T06:48:01.665Z,1010.54
2019-06-08T06:49:01.271Z,1010.54
2019-06-08T06:50:01.266Z,1010.54
2019-06-08T06:51:01.566Z,1010.56
2019-06-08T06:52:01.240Z,1010.54
2019-06-08T06:53:01.227Z,1010.50
2019-06-08T06:54:01.563Z,1010.45
2019-06-08T06:55:01.205Z,1010.53
2019-06-08T06:56:01.203Z,1010.49
2019-06-08T06:57:01.565Z,1010.51
2019-06-08T06:58:01.183Z,1010.51
2019-06-08T06:59:01.213Z,1010.50
2019-06-08T07:00:01.450Z,1010.46
2019-06-08T07:01:01.152Z,1010.57
2019-06-08T07:02:01.779Z,1010.48
2019-06-08T07:03:01.122Z,1010.43
2019-06-08T07:04:01.116Z,1010.45
2019-06-08T07:05:01.472Z,1010.51
2019-06-08T07:06:01.088Z,1010.45
2019-06-08T07:07:01.088Z,1010.45
2019-06-08T07:08:01.073Z,1010.45
2019-06-08T07:09:01.063Z,1010.43
2019-06-08T07:10:01.065Z,1010.44
2019-06-08T07:11:01.357Z,1010.48
2019-06-08T07:12:01.033Z,1010.45
2019-06-08T07:13:01.028Z,1010.39
2019-06-08T07:14:01.314Z,1010.43
2019-06-08T07:15:01.044Z,1010.41
2019-06-08T07:16:17.327Z,1010.48
2019-06-08T07:17:02.305Z,1010.41
2019-06-08T07:19:15.258Z,1010.42
2019-06-08T07:20:15.285Z,1010.40
2019-06-08T07:21:14.964Z,1010.39
2019-06-08T07:22:14.957Z,1010.39
2019-06-08T07:23:15.142Z,1010.40
2019-06-08T07:24:14.932Z,1010.44
2019-06-08T07:25:14.936Z,1010.43
2019-06-08T07:26:15.253Z,1010.43
2019-06-08T07:27:14.901Z,1010.44
2019-06-08T07:28:14.893Z,1010.45
2019-06-08T07:29:15.173Z,1010.38
2019-06-08T07:30:14.892Z,1010.41
2019-06-08T07:31:14.859Z,1010.40
2019-06-08T07:32:15.208Z,1010.40
2019-06-08T07:33:14.845Z,1010.37
2019-06-08T07:34:14.835Z,1010.36
2019-06-08T07:35:15.202Z,1010.32
2019-06-08T07:36:14.816Z,1010.35
2019-06-08T07:37:14.799Z,1010.34
2019-06-08T07:38:15.102Z,1010.37
2019-06-08T07:39:14.777Z,1010.48
2019-06-08T07:40:14.800Z,1010.28
2019-06-08T07:41:15.055Z,1010.39
2019-06-08T07:42:14.758Z,1010.35
2019-06-08T07:43:14.743Z,1010.34
2019-06-08T07:44:15.046Z,1010.29
2019-06-08T07:45:14.725Z,1010.36
2019-06-08T07:46:14.730Z,1010.37
2019-06-08T07:47:14.975Z,1010.37
2019-06-08T07:48:14.696Z,1010.37
2019-06-08T07:49:22.629Z,1010.33
2019-06-08T07:50:14.972Z,1010.39
2019-06-08T07:51:14.658Z,1010.38
2019-06-08T07:52:14.726Z,1010.37
2019-06-08T07:53:14.635Z,1010.42
2019-06-08T07:54:14.623Z,1010.45
2019-06-08T07:55:14.927Z,1010.43
2019-06-08T07:56:14.613Z,1010.48
2019-06-08T07:57:14.606Z,1010.39
2019-06-08T07:58:14.926Z,1010.44
2019-06-08T07:59:14.580Z,1010.46
2019-06-08T08:00:14.563Z,1010.44
2019-06-08T08:01:14.925Z,1010.48
2019-06-08T08:02:14.557Z,1010.48
2019-06-08T08:03:14.534Z,1010.42
2019-06-08T08:04:14.867Z,1010.48
2019-06-08T08:05:14.519Z,1010.47
2019-06-08T08:06:14.509Z,1010.45
2019-06-08T08:07:14.828Z,1010.45
2019-06-08T08:08:14.481Z,1010.47
2019-06-08T08:09:14.467Z,1010.48
2019-06-08T08:10:14.836Z,1010.47
2019-06-08T08:11:14.452Z,1010.45
2019-06-08T08:12:14.455Z,1010.47
2019-06-08T08:13:14.797Z,1010.42
2019-06-08T08:14:14.429Z,1010.48
2019-06-08T08:15:14.414Z,1010.44
2019-06-08T08:16:14.710Z,1010.46
2019-06-08T08:17:14.428Z,1010.43
2019-06-08T08:18:14.379Z,1010.37
2019-06-08T08:19:14.669Z,1010.42
2019-06-08T08:21:29.539Z,1010.37
2019-06-08T08:22:29.593Z,1010.41
2019-06-08T08:23:28.894Z,1010.47
2019-06-08T08:24:28.547Z,1010.42
2019-06-08T08:25:28.830Z,1010.41
2019-06-08T08:26:31.317Z,1010.52
2019-06-08T08:27:28.499Z,1010.45
2019-06-08T08:28:28.677Z,1010.50
2019-06-08T08:29:31.346Z,1010.45
2019-06-08T08:30:28.541Z,1010.54
2019-06-08T08:31:28.623Z,1010.47
2019-06-08T08:32:28.471Z,1010.46
2019-06-08T08:33:28.433Z,1010.49
2019-06-08T08:34:28.737Z,1010.51
2019-06-08T08:35:28.415Z,1010.57
2019-06-08T08:36:29.409Z,1010.54
2019-06-08T08:37:28.661Z,1010.52
2019-06-08T08:38:28.382Z,1010.49
2019-06-08T08:39:29.314Z,1010.47
2019-06-08T08:40:28.702Z,1010.50
2019-06-08T08:41:28.353Z,1010.58
2019-06-08T08:42:30.118Z,1010.50
2019-06-08T08:43:28.656Z,1010.52
2019-06-08T08:44:28.418Z,1010.42
2019-06-08T08:45:28.301Z,1010.59
2019-06-08T08:46:28.684Z,1010.50
2019-06-08T08:47:30.809Z,1010.51
2019-06-08T08:48:31.496Z,1010.55
2019-06-08T08:49:28.632Z,1010.57
2019-06-08T08:50:28.396Z,1010.58
2019-06-08T08:51:40.002Z,1010.49
2019-06-08T08:52:36.823Z,1010.50
2019-06-08T08:53:28.235Z,1010.50
2019-06-08T08:54:29.769Z,1010.55
2019-06-08T08:55:28.490Z,1010.56
2019-06-08T08:56:28.195Z,1010.59
2019-06-08T08:57:28.860Z,1010.52
2019-06-08T08:58:28.570Z,1010.46
2019-06-08T08:59:28.193Z,1010.55
2019-06-08T09:00:28.261Z,1010.49
2019-06-08T09:01:28.939Z,1010.52
2019-06-08T09:02:28.162Z,1010.55
2019-06-08T09:03:33.190Z,1010.51
2019-06-08T09:04:28.415Z,1010.49
2019-06-08T09:05:28.197Z,1010.55
2019-06-08T09:06:28.231Z,1010.51
2019-06-08T09:07:28.064Z,1010.54
2019-06-08T09:08:29.824Z,1010.49
2019-06-08T09:09:28.828Z,1010.48
2019-06-08T09:10:28.165Z,1010.51
2019-06-08T09:11:28.899Z,1010.57
2019-06-08T09:12:28.019Z,1010.49
2019-06-08T09:13:28.297Z,1010.61
2019-06-08T09:14:28.364Z,1010.62
2019-06-08T09:15:31.144Z,1010.56
2019-06-08T09:16:28.774Z,1010.53
2019-06-08T09:17:28.283Z,1010.51
2019-06-08T09:18:28.686Z,1010.53
2019-06-08T09:19:28.407Z,1010.49
2019-06-08T09:20:28.630Z,1010.54
2019-06-08T09:21:28.205Z,1010.52
2019-06-08T09:22:53.006Z,1010.52
2019-06-08T09:23:28.274Z,1010.51
2019-06-08T09:24:28.612Z,1010.53
2019-06-08T09:25:28.091Z,1010.46
2019-06-08T09:26:28.792Z,1010.43
2019-06-08T09:27:28.175Z,1010.42
2019-06-08T09:28:28.517Z,1010.39
2019-06-08T09:29:28.923Z,1010.43
2019-06-08T09:30:28.161Z,1010.42
2019-06-08T09:31:30.836Z,1010.41
2019-06-08T09:32:28.241Z,1010.41
2019-06-08T09:33:28.816Z,1010.35
2019-06-08T09:34:28.319Z,1010.38
2019-06-08T09:35:28.058Z,1010.37
2019-06-08T09:36:28.668Z,1010.28
2019-06-08T09:37:28.818Z,1010.39
2019-06-08T09:38:28.716Z,1010.40
2019-06-08T09:39:28.674Z,1010.37
2019-06-08T09:40:31.874Z,1010.31
2019-06-08T09:41:31.037Z,1010.36
2019-06-08T09:42:28.494Z,1010.37
2019-06-08T09:43:28.943Z,1010.36
2019-06-08T09:44:28.099Z,1010.36
2019-06-08T09:45:28.951Z,1010.31
2019-06-08T09:46:27.868Z,1010.35
2019-06-08T09:47:28.056Z,1010.30
2019-06-08T09:48:28.799Z,1010.35
2019-06-08T09:49:28.045Z,1010.36
2019-06-08T09:50:27.848Z,1010.26
2019-06-08T09:51:28.511Z,1010.35
2019-06-08T09:52:28.170Z,1010.27
2019-06-08T09:53:41.569Z,1010.32
2019-06-08T09:54:28.298Z,1010.29
2019-06-08T09:55:28.824Z,1010.29
2019-06-08T09:56:28.257Z,1010.32
2019-06-08T09:57:28.402Z,1010.26
2019-06-08T09:58:29.060Z,1010.24
2019-06-08T09:59:28.504Z,1010.27
2019-06-08T10:00:29.284Z,1010.25
2019-06-08T10:01:28.619Z,1010.23
2019-06-08T10:02:28.341Z,1010.28
2019-06-08T10:03:30.647Z,1010.22
2019-06-08T10:04:29.145Z,1010.26
2019-06-08T10:05:27.645Z,1010.21
2019-06-08T10:06:27.913Z,1010.32
2019-06-08T10:07:28.594Z,1010.23
2019-06-08T10:08:28.294Z,1010.20
2019-06-08T10:09:28.415Z,1010.22
2019-06-08T10:10:27.399Z,1010.19
2019-06-08T10:11:28.111Z,1010.12
2019-06-08T10:12:28.215Z,1010.13
2019-06-08T10:13:28.074Z,1010.19
2019-06-08T10:14:28.203Z,1010.24
2019-06-08T10:15:27.896Z,1010.20
2019-06-08T10:16:27.962Z,1010.19
2019-06-08T10:17:27.915Z,1010.14
2019-06-08T10:18:28.507Z,1010.16
2019-06-08T10:19:27.329Z,1010.15
2019-06-08T10:20:28.840Z,1010.16
2019-06-08T10:21:28.457Z,1010.15
2019-06-08T10:22:28.262Z,1010.17
2019-06-08T10:23:34.047Z,1010.16
2019-06-08T10:24:41.499Z,1010.19
2019-06-08T10:25:28.629Z,1010.06
2019-06-08T10:26:27.991Z,1010.22
2019-06-08T10:27:28.381Z,1010.22
2019-06-08T10:28:28.985Z,1010.21
2019-06-08T10:29:27.206Z,1010.19
2019-06-08T10:30:28.434Z,1010.11
2019-06-08T10:31:36.478Z,1010.12
2019-06-08T10:32:28.371Z,1010.19
2019-06-08T10:33:28.202Z,1010.14
2019-06-08T10:34:27.335Z,1010.10
2019-06-08T10:35:28.327Z,1010.10
2019-06-08T10:36:28.376Z,1010.05
2019-06-08T10:37:28.352Z,1010.09
2019-06-08T10:38:28.953Z,1010.08
2019-06-08T10:39:28.350Z,1010.05
2019-06-08T10:40:28.537Z,1009.92
2019-06-08T10:41:27.838Z,1010.03
2019-06-08T10:42:27.385Z,1009.97
2019-06-08T10:43:28.911Z,1010.10
2019-06-08T10:44:28.387Z,1010.00
2019-06-08T10:45:28.626Z,1010.05
2019-06-08T10:46:27.020Z,1010.00
2019-06-08T10:47:29.467Z,1010.00
2019-06-08T10:48:27.651Z,1009.96
2019-06-08T10:49:28.611Z,1010.07
2019-06-08T10:50:28.800Z,1010.09
2019-06-08T10:51:27.228Z,1010.01
2019-06-08T10:52:28.178Z,1010.05
2019-06-08T10:53:28.607Z,1009.95
2019-06-08T10:54:28.299Z,1010.05
2019-06-08T10:56:41.785Z,1009.96
2019-06-08T10:57:41.810Z,1009.97
2019-06-08T10:58:41.443Z,1010.01
2019-06-08T10:59:41.445Z,1010.05
2019-06-08T11:00:41.675Z,1010.02
2019-06-08T11:01:41.405Z,1010.00
2019-06-08T11:02:41.392Z,1009.94
2019-06-08T11:03:41.569Z,1009.90
2019-06-08T11:04:43.430Z,1009.98
2019-06-08T11:05:41.390Z,1010.05
2019-06-08T11:06:41.665Z,1009.99
2019-06-08T11:07:41.345Z,1010.02
2019-06-08T11:08:41.329Z,1009.99
2019-06-08T11:09:41.663Z,1009.98
2019-06-08T11:10:41.353Z,1009.95
2019-06-08T11:11:41.327Z,1010.11
2019-06-08T11:12:41.604Z,1010.03
2019-06-08T11:13:41.285Z,1010.04
2019-06-08T11:14:41.272Z,1010.12
2019-06-08T11:15:41.575Z,1009.99
2019-06-08T11:16:41.271Z,1009.96
2019-06-08T11:17:41.244Z,1010.07
2019-06-08T11:18:41.526Z,1009.95
2019-06-08T11:19:41.231Z,1009.97
2019-06-08T11:20:41.238Z,1009.92
2019-06-08T11:21:41.556Z,1009.93
2019-06-08T11:22:41.199Z,1009.93
2019-06-08T11:23:41.625Z,1009.91
2019-06-08T11:24:41.478Z,1009.98
2019-06-08T11:25:41.164Z,1009.95
2019-06-08T11:26:53.651Z,1009.88
2019-06-08T11:27:41.533Z,1010.02
2019-06-08T11:28:41.449Z,1009.99
2019-06-08T11:29:41.128Z,1009.94
2019-06-08T11:30:41.104Z,1009.94
2019-06-08T11:31:41.375Z,1009.97
2019-06-08T11:32:41.102Z,1009.98
2019-06-08T11:33:41.075Z,1009.84
2019-06-08T11:34:41.380Z,1009.93
2019-06-08T11:35:41.065Z,1009.96
2019-06-08T11:36:41.042Z,1009.91
2019-06-08T11:37:41.340Z,1009.90
2019-06-08T11:38:41.053Z,1009.92
2019-06-08T11:39:41.015Z,1009.92
2019-06-08T11:40:41.331Z,1009.97
2019-06-08T11:41:41.000Z,1009.96
2019-06-08T11:42:40.997Z,1009.93
2019-06-08T11:43:41.339Z,1009.95
2019-06-08T11:44:40.964Z,1009.96
2019-06-08T11:45:40.953Z,1009.94
2019-06-08T11:46:42.698Z,1009.92
2019-06-08T11:47:40.952Z,1009.89
2019-06-08T11:48:41.661Z,1009.92
2019-06-08T11:49:41.239Z,1009.88
2019-06-08T11:50:42.079Z,1009.92
2019-06-08T11:51:40.907Z,1009.95
2019-06-08T11:52:41.196Z,1009.90
2019-06-08T11:53:40.889Z,1009.87
2019-06-08T11:54:41.372Z,1009.89
2019-06-08T11:55:41.168Z,1009.94
2019-06-08T11:56:40.840Z,1009.90
2019-06-08T11:58:41.214Z,1009.88
2019-06-08T11:59:40.819Z,1009.90
2019-06-08T12:00:40.798Z,1009.91
2019-06-08T12:01:41.081Z,1009.96
2019-06-08T12:02:41.428Z,1009.96
2019-06-08T12:03:40.790Z,1009.92
2019-06-08T12:04:41.105Z,1009.90
2019-06-08T12:05:40.751Z,1009.92
2019-06-08T12:06:40.742Z,1009.92
2019-06-08T12:07:41.103Z,1009.89
2019-06-08T12:08:40.716Z,1009.93
2019-06-08T12:09:40.715Z,1009.97
2019-06-08T12:10:41.142Z,1009.91
2019-06-08T12:11:40.686Z,1009.90